To NAV CANADA Home Page Login to a new session Search on AWWS site Feedback and Comments Disclaimer Vers la page française équivalente Tips FAQ What's new on the site To the Forecasts and Observations / NOTAM section To "File a Flight Plan" website Publications and other links Update of the User's profile FIC Telephone Numbers My Weather Data Folder Route Weather Data Regional Weather Data Local Weather Data To the Forecasts and Observations / NOTAM section
Request Generated 02/11/2016 at 20:58:22 UTC . Weather information available at that time is displayed.

METAR/TAF

ST. ANTHONY/NL    (show WxCam)

METAR CYAY 112000Z AUTO 24010KT 9SM CLR M06/M09 A2935 RMK SLP942=
METAR CYAY 111900Z AUTO 23014G20KT 9SM CLR M05/M09 A2934 RMK SLP940=
METAR CYAY 111800Z AUTO 23013G19KT 9SM CLR M05/M08 A2933 RMK SLP937=

TAF CYAY 111938Z 1120/1208 23018KT P6SM FEW010
FM112200 23012KT P6SM SCT020 TEMPO 1122/1203 P6SM -SN BKN020
FM120300 24012KT P6SM FEW025
RMK FCST BASED ON AUTO OBS. NXT FCST BY 120200Z=
Your time UTC time
Weather data provided by Environment Canada and NAV CANADA